Time;durP1;ratioP1;P1;durP2;ratioP2;P2;SDS_P1;SDS_P2;PMS_P1;PMS_P2;Temp;Humidity;BMP_temperature;BMP_pressure;BME280_temperature;BME280_humidity;BME280_pressure;Samples;Min_cycle;Max_cycle;Signal;HPM_P1;HPM_P2
2022/03/08 00:00:35;;;;;;;14.73;6.93;;;-0.70;99.90;;;;;;5024176;28;20465;-68
2022/03/08 00:03:03;;;;;;;14.90;6.37;;;-0.70;99.90;;;;;;5024425;28;20199;-68
2022/03/08 00:05:30;;;;;;;13.40;7.03;;;-0.80;99.90;;;;;;5025582;28;20892;-68
2022/03/08 00:07:58;;;;;;;12.13;6.40;;;-0.70;99.90;;;;;;5019222;28;20286;-68
2022/03/08 00:10:26;;;;;;;13.07;6.80;;;-0.70;99.90;;;;;;5023565;28;20200;-68
2022/03/08 00:12:53;;;;;;;10.83;6.20;;;-0.70;99.90;;;;;;5027463;28;20199;-67
2022/03/08 00:15:24;;;;;;;9.57;5.50;;;-0.60;99.90;;;;;;5026557;28;20219;-67
2022/03/08 00:17:55;;;;;;;14.20;5.37;;;-0.50;99.90;;;;;;5022550;28;20216;-69
2022/03/08 00:20:23;;;;;;;11.73;5.70;;;-0.30;99.90;;;;;;5022205;28;20828;-67
2022/03/08 00:22:50;;;;;;;10.10;4.97;;;-0.10;99.90;;;;;;5028467;28;20585;-68
2022/03/08 00:25:17;;;;;;;10.93;5.00;;;0.00;99.90;;;;;;5021991;28;20470;-67
2022/03/08 00:27:48;;;;;;;7.60;4.90;;;0.10;99.90;;;;;;5025581;28;20485;-69
2022/03/08 00:30:17;;;;;;;9.73;5.37;;;0.30;99.90;;;;;;5015800;28;20196;-68
2022/03/08 00:32:44;;;;;;;8.80;4.97;;;0.40;99.90;;;;;;5025543;28;20207;-68
2022/03/08 00:35:14;;;;;;;9.93;4.60;;;0.60;99.90;;;;;;5017936;28;20224;-68
2022/03/08 00:37:42;;;;;;;8.53;4.73;;;0.60;99.90;;;;;;5024056;28;20223;-68
2022/03/08 00:40:11;;;;;;;10.87;5.13;;;0.70;99.90;;;;;;5030769;28;20674;-68
2022/03/08 00:42:38;;;;;;;8.87;5.13;;;0.70;99.90;;;;;;5027705;28;20196;-68
2022/03/08 00:45:07;;;;;;;9.67;4.83;;;0.90;99.90;;;;;;5028920;28;20690;-66
2022/03/08 00:47:35;;;;;;;9.07;5.03;;;1.00;99.90;;;;;;5030763;28;20215;-66
2022/03/08 00:50:03;;;;;;;7.90;4.57;;;1.00;99.90;;;;;;5024719;28;20927;-66
2022/03/08 00:52:30;;;;;;;10.10;4.97;;;0.90;99.90;;;;;;5022833;28;20564;-66
2022/03/08 00:54:57;;;;;;;7.93;5.27;;;0.80;99.90;;;;;;5030377;28;20226;-66
2022/03/08 00:57:23;;;;;;;10.23;5.30;;;0.80;99.90;;;;;;5028545;28;20216;-66
2022/03/08 00:59:50;;;;;;;7.17;4.70;;;0.80;99.90;;;;;;5026129;28;20205;-66
2022/03/08 01:02:17;;;;;;;7.70;4.30;;;0.80;99.90;;;;;;5029855;28;20689;-66
2022/03/08 01:04:44;;;;;;;7.57;4.50;;;0.70;99.90;;;;;;5028756;28;20200;-67
2022/03/08 01:07:11;;;;;;;7.87;4.80;;;0.90;99.90;;;;;;5026328;28;20195;-68
2022/03/08 01:09:37;;;;;;;9.57;4.47;;;1.10;99.90;;;;;;5030613;28;20597;-70
2022/03/08 01:12:04;;;;;;;8.17;5.00;;;1.00;99.90;;;;;;5029412;28;20200;-67
2022/03/08 01:14:31;;;;;;;9.60;4.57;;;0.90;99.90;;;;;;5024342;28;20200;-69
2022/03/08 01:16:58;;;;;;;8.90;4.80;;;0.90;99.90;;;;;;5027913;28;20224;-68
2022/03/08 01:19:25;;;;;;;8.47;4.80;;;0.90;99.90;;;;;;5026046;28;20621;-68
2022/03/08 01:21:51;;;;;;;9.07;4.57;;;0.80;99.90;;;;;;5026282;28;20317;-66
2022/03/08 01:24:18;;;;;;;7.77;4.70;;;0.80;99.90;;;;;;5028886;28;20200;-66
2022/03/08 01:26:45;;;;;;;7.27;5.10;;;0.70;99.90;;;;;;5026704;28;20264;-66
2022/03/08 01:29:11;;;;;;;9.37;4.90;;;0.70;99.90;;;;;;5030726;28;20206;-66
2022/03/08 01:31:38;;;;;;;8.33;4.53;;;0.70;99.90;;;;;;5029677;28;20567;-66
2022/03/08 01:34:05;;;;;;;8.20;4.80;;;0.60;99.90;;;;;;5028509;28;20560;-66
2022/03/08 01:36:32;;;;;;;9.17;4.47;;;0.50;99.90;;;;;;5028575;28;20269;-66
2022/03/08 01:38:58;;;;;;;7.53;4.50;;;0.50;99.90;;;;;;5029718;28;20199;-66
2022/03/08 01:41:25;;;;;;;8.77;4.83;;;0.40;99.90;;;;;;5028746;28;20195;-70
2022/03/08 01:43:52;;;;;;;8.30;4.97;;;0.30;99.90;;;;;;5029725;28;20191;-66
2022/03/08 01:46:19;;;;;;;7.50;4.53;;;0.30;99.90;;;;;;5026330;28;20269;-66
2022/03/08 01:48:46;;;;;;;8.80;4.70;;;0.30;99.90;;;;;;5030164;28;20557;-69
2022/03/08 01:51:15;;;;;;;11.03;5.23;;;0.20;99.90;;;;;;5026970;28;20196;-67
2022/03/08 01:53:42;;;;;;;6.23;4.50;;;0.10;99.90;;;;;;5029605;28;20202;-68
2022/03/08 01:56:10;;;;;;;8.30;5.00;;;0.10;99.90;;;;;;5026751;28;20215;-68
2022/03/08 01:58:37;;;;;;;10.37;5.30;;;0.00;99.90;;;;;;5027170;28;20219;-68
2022/03/08 02:01:05;;;;;;;9.33;4.73;;;0.00;99.90;;;;;;5021903;28;20198;-67
2022/03/08 02:03:34;;;;;;;6.73;4.40;;;0.00;99.90;;;;;;5030142;28;20192;-70
2022/03/08 02:06:00;;;;;;;8.40;4.80;;;-0.10;99.90;;;;;;5028992;28;20578;-67
2022/03/08 02:08:28;;;;;;;8.40;4.47;;;-0.20;99.90;;;;;;5026700;28;20326;-66
2022/03/08 02:10:55;;;;;;;9.57;4.93;;;-0.10;99.90;;;;;;5027507;28;20203;-65
2022/03/08 02:13:24;;;;;;;8.70;4.83;;;0.10;99.90;;;;;;5029774;28;20226;-66
2022/03/08 02:15:51;;;;;;;9.00;4.77;;;0.10;99.90;;;;;;5027885;28;20705;-66
2022/03/08 02:18:19;;;;;;;9.17;4.80;;;0.10;99.90;;;;;;5024041;28;20223;-66
2022/03/08 02:20:46;;;;;;;7.63;4.50;;;0.10;99.90;;;;;;5027644;28;20226;-66
2022/03/08 02:23:14;;;;;;;8.53;4.97;;;0.00;99.90;;;;;;5027070;28;20222;-66
2022/03/08 02:25:41;;;;;;;8.43;5.30;;;0.00;99.90;;;;;;5027942;28;20223;-66
2022/03/08 02:28:08;;;;;;;9.10;5.40;;;0.00;99.90;;;;;;5019525;28;20210;-66
2022/03/08 02:30:35;;;;;;;9.57;4.93;;;-0.10;99.90;;;;;;5026067;28;20196;-66
2022/03/08 02:33:02;;;;;;;9.37;4.63;;;-0.10;99.90;;;;;;5026960;28;20341;-66
2022/03/08 02:35:31;;;;;;;8.07;5.10;;;-0.10;99.90;;;;;;5029606;28;20298;-66
2022/03/08 02:38:03;;;;;;;7.67;4.60;;;-0.20;99.90;;;;;;5027790;28;20246;-66
2022/03/08 02:40:33;;;;;;;8.23;5.07;;;-0.10;99.90;;;;;;5026274;28;20199;-66
2022/03/08 02:43:01;;;;;;;12.13;4.87;;;-0.20;99.90;;;;;;5024091;28;20654;-66
2022/03/08 02:45:28;;;;;;;7.27;4.53;;;-0.10;99.90;;;;;;5027740;28;20690;-66
2022/03/08 02:47:54;;;;;;;9.03;4.53;;;-0.10;99.90;;;;;;5027356;28;20204;-68
2022/03/08 02:50:22;;;;;;;8.47;4.93;;;0.00;99.90;;;;;;5028696;28;20208;-68
2022/03/08 02:52:51;;;;;;;8.10;4.77;;;0.00;99.90;;;;;;5023916;28;20195;-70
2022/03/08 02:55:22;;;;;;;9.77;5.20;;;0.20;99.90;;;;;;5027856;28;20645;-70
2022/03/08 02:57:49;;;;;;;9.50;5.30;;;0.10;99.90;;;;;;5027732;28;20223;-69
2022/03/08 03:00:19;;;;;;;10.23;5.03;;;0.10;99.90;;;;;;5026606;28;20199;-68
2022/03/08 03:02:46;;;;;;;9.73;5.43;;;0.10;99.90;;;;;;5033345;28;20191;-68
2022/03/08 03:05:13;;;;;;;8.37;5.00;;;0.00;99.90;;;;;;5027525;28;20222;-67
2022/03/08 03:07:41;;;;;;;7.77;5.20;;;0.10;99.90;;;;;;5027271;28;20384;-69
2022/03/08 03:10:10;;;;;;;9.53;5.00;;;0.00;99.90;;;;;;5022930;28;20658;-68
2022/03/08 03:12:38;;;;;;;7.43;4.90;;;0.10;99.90;;;;;;5026993;28;20200;-68
2022/03/08 03:15:08;;;;;;;10.50;4.90;;;0.10;99.90;;;;;;5027748;28;20227;-68
2022/03/08 03:17:35;;;;;;;8.97;4.87;;;0.10;99.90;;;;;;5024876;28;20571;-66
2022/03/08 03:20:04;;;;;;;8.47;4.80;;;0.20;99.90;;;;;;5022978;28;20211;-68
2022/03/08 03:22:31;;;;;;;8.23;5.07;;;0.10;99.90;;;;;;5027629;28;20202;-69
2022/03/08 03:24:58;;;;;;;6.87;4.63;;;0.20;99.90;;;;;;5025161;28;20223;-66
2022/03/08 03:27:24;;;;;;;7.87;5.03;;;0.20;99.90;;;;;;5025488;28;20204;-67
2022/03/08 03:29:51;;;;;;;9.63;4.67;;;0.10;99.90;;;;;;5024512;28;20215;-66
2022/03/08 03:32:19;;;;;;;8.60;4.77;;;0.30;99.90;;;;;;5043993;28;20222;-66
2022/03/08 03:34:46;;;;;;;7.50;4.87;;;0.30;99.90;;;;;;5025051;28;20302;-69
2022/03/08 03:37:13;;;;;;;9.30;4.97;;;0.50;99.90;;;;;;5024190;28;20320;-67
2022/03/08 03:39:40;;;;;;;7.80;4.70;;;0.60;99.90;;;;;;5028889;28;20646;-69
2022/03/08 03:42:07;;;;;;;8.03;4.77;;;0.40;99.90;;;;;;5026759;28;20669;-71
2022/03/08 03:44:34;;;;;;;8.40;4.90;;;0.40;99.90;;;;;;5022676;28;20208;-67
2022/03/08 03:47:00;;;;;;;9.07;4.70;;;0.50;99.90;;;;;;5024830;28;20582;-68
2022/03/08 03:49:27;;;;;;;10.73;4.73;;;0.40;99.90;;;;;;5026882;28;20202;-67
2022/03/08 03:51:54;;;;;;;8.33;4.67;;;0.40;99.90;;;;;;5021605;28;20188;-70
2022/03/08 03:54:21;;;;;;;8.03;4.70;;;0.40;99.90;;;;;;5026853;28;20202;-69
2022/03/08 03:56:48;;;;;;;7.27;4.60;;;0.40;99.90;;;;;;5026987;28;20211;-69
2022/03/08 03:59:15;;;;;;;8.13;4.80;;;0.60;99.90;;;;;;5020541;28;20234;-71
2022/03/08 04:01:42;;;;;;;11.70;5.27;;;0.60;99.90;;;;;;5023516;28;20491;-68
2022/03/08 04:04:09;;;;;;;9.60;4.97;;;0.70;99.90;;;;;;5026083;28;20195;-68
2022/03/08 04:06:36;;;;;;;9.00;5.10;;;0.80;99.90;;;;;;5026114;28;20215;-69
2022/03/08 04:09:04;;;;;;;7.97;4.53;;;0.80;99.90;;;;;;5022283;28;20198;-67
2022/03/08 04:11:31;;;;;;;9.70;4.93;;;0.70;99.90;;;;;;5026615;28;20196;-66
2022/03/08 04:13:58;;;;;;;10.10;5.67;;;0.70;99.90;;;;;;5028248;28;20517;-66
2022/03/08 04:16:25;;;;;;;8.43;4.80;;;0.70;99.90;;;;;;5029203;28;20215;-66
2022/03/08 04:18:52;;;;;;;11.23;4.90;;;0.80;99.90;;;;;;5029641;28;20306;-66
2022/03/08 04:21:19;;;;;;;11.17;5.23;;;0.70;99.90;;;;;;5026946;28;20191;-66
2022/03/08 04:23:45;;;;;;;9.50;5.07;;;0.80;99.90;;;;;;5027737;28;20192;-66
2022/03/08 04:26:12;;;;;;;8.03;4.97;;;0.80;99.90;;;;;;5025912;28;20215;-66
2022/03/08 04:28:39;;;;;;;7.47;4.80;;;0.80;99.90;;;;;;5031722;28;20826;-66
2022/03/08 04:31:05;;;;;;;8.40;4.40;;;0.70;99.90;;;;;;5028440;28;20550;-67
2022/03/08 04:33:32;;;;;;;8.97;4.70;;;0.60;99.90;;;;;;5030490;28;20209;-66
2022/03/08 04:35:59;;;;;;;9.40;4.87;;;0.50;99.90;;;;;;5030841;28;20223;-67
2022/03/08 04:38:26;;;;;;;9.73;4.70;;;0.50;99.90;;;;;;5028756;28;20215;-66
2022/03/08 04:40:52;;;;;;;10.93;4.97;;;0.60;99.90;;;;;;5028738;28;20446;-66
2022/03/08 04:43:19;;;;;;;10.00;4.43;;;0.60;99.90;;;;;;5026713;28;20203;-66
2022/03/08 04:45:46;;;;;;;13.43;5.60;;;0.50;99.90;;;;;;5028554;28;20612;-68
2022/03/08 04:48:12;;;;;;;7.93;4.67;;;0.50;99.90;;;;;;5027426;28;20204;-68
2022/03/08 04:50:40;;;;;;;8.73;5.00;;;0.40;99.90;;;;;;5028854;28;20234;-69
2022/03/08 04:53:06;;;;;;;11.80;5.03;;;0.40;99.90;;;;;;5031342;28;20199;-68
2022/03/08 04:55:33;;;;;;;10.03;5.07;;;0.30;99.90;;;;;;5028535;28;20298;-69
2022/03/08 04:58:00;;;;;;;10.40;5.20;;;0.10;99.90;;;;;;5029356;28;20215;-68
2022/03/08 05:00:26;;;;;;;8.70;5.13;;;0.20;99.90;;;;;;5030899;28;20199;-68
2022/03/08 05:02:53;;;;;;;10.17;5.47;;;0.10;99.90;;;;;;5029623;28;20192;-68
2022/03/08 05:05:20;;;;;;;10.07;5.37;;;0.20;99.90;;;;;;5027540;28;20219;-68
2022/03/08 05:07:46;;;;;;;8.77;5.10;;;0.20;99.90;;;;;;5027071;28;20207;-68
2022/03/08 05:10:13;;;;;;;9.53;5.07;;;0.30;99.90;;;;;;5030803;28;20199;-68
2022/03/08 05:12:40;;;;;;;9.03;4.73;;;0.40;99.90;;;;;;5026801;28;20207;-70
2022/03/08 05:15:08;;;;;;;8.47;4.67;;;0.40;99.90;;;;;;5031297;28;20212;-68
2022/03/08 05:17:35;;;;;;;8.90;5.33;;;0.40;99.90;;;;;;5026426;28;20203;-68
2022/03/08 05:20:06;;;;;;;8.03;5.17;;;0.30;99.90;;;;;;5030727;28;20187;-69
2022/03/08 05:22:33;;;;;;;8.13;4.93;;;0.30;99.90;;;;;;5025013;28;20212;-68
2022/03/08 05:25:00;;;;;;;8.50;5.20;;;0.10;99.90;;;;;;5030574;28;20716;-68
2022/03/08 05:27:26;;;;;;;9.17;5.10;;;0.10;99.90;;;;;;5026271;28;20207;-69
2022/03/08 05:29:53;;;;;;;12.23;5.37;;;0.00;99.90;;;;;;5029114;28;20196;-68
2022/03/08 05:32:19;;;;;;;8.70;4.97;;;-0.20;99.90;;;;;;5026158;28;20206;-71
2022/03/08 05:34:46;;;;;;;8.07;4.83;;;-0.20;99.90;;;;;;5026533;28;20200;-67
2022/03/08 05:37:13;;;;;;;9.97;5.67;;;-0.20;99.90;;;;;;5027732;28;20188;-68
2022/03/08 05:39:40;;;;;;;10.27;5.37;;;-0.30;99.90;;;;;;5028038;28;20267;-69
2022/03/08 05:42:07;;;;;;;8.87;5.07;;;-0.20;99.90;;;;;;5027823;28;20199;-69
2022/03/08 05:44:34;;;;;;;10.33;5.27;;;-0.10;99.90;;;;;;5028372;28;20204;-71
2022/03/08 05:47:01;;;;;;;9.90;5.43;;;-0.10;99.90;;;;;;5029831;28;20302;-70
2022/03/08 05:49:27;;;;;;;10.07;5.50;;;-0.20;99.90;;;;;;5029607;28;20199;-68
2022/03/08 05:51:54;;;;;;;8.87;5.50;;;-0.20;99.90;;;;;;5029914;28;20203;-66
2022/03/08 05:54:21;;;;;;;9.17;5.07;;;-0.20;99.90;;;;;;5027188;28;20481;-66
2022/03/08 05:56:47;;;;;;;8.00;4.83;;;-0.20;99.90;;;;;;5029349;28;20567;-66
2022/03/08 05:59:14;;;;;;;10.83;5.17;;;-0.20;99.90;;;;;;5026790;28;20298;-66
2022/03/08 06:01:41;;;;;;;9.43;5.27;;;-0.20;99.90;;;;;;5027449;28;20200;-66
2022/03/08 06:04:08;;;;;;;9.87;5.63;;;-0.20;99.90;;;;;;5027434;28;20278;-66
2022/03/08 06:06:34;;;;;;;10.40;4.90;;;-0.20;99.90;;;;;;5029241;28;20215;-66
2022/03/08 06:09:01;;;;;;;7.63;4.93;;;-0.20;99.90;;;;;;5027989;28;20199;-66
2022/03/08 06:11:28;;;;;;;11.10;5.80;;;-0.20;99.90;;;;;;5026967;28;20210;-66
2022/03/08 06:13:55;;;;;;;10.10;5.70;;;-0.20;99.90;;;;;;5025472;28;20204;-66
2022/03/08 06:16:21;;;;;;;10.77;5.73;;;-0.10;99.90;;;;;;5027340;28;20219;-66
2022/03/08 06:18:48;;;;;;;15.13;6.17;;;-0.20;99.90;;;;;;5028504;28;20251;-66
2022/03/08 06:21:15;;;;;;;11.97;5.40;;;-0.20;99.90;;;;;;5027454;28;20401;-66
2022/03/08 06:23:41;;;;;;;12.80;6.20;;;-0.20;99.90;;;;;;5022179;28;20187;-66
2022/03/08 06:26:08;;;;;;;13.17;5.73;;;-0.10;99.90;;;;;;5022741;28;20216;-65
2022/03/08 06:28:35;;;;;;;14.50;6.47;;;-0.10;99.90;;;;;;5023874;28;20196;-65
2022/03/08 06:31:02;;;;;;;14.27;6.93;;;-0.20;99.90;;;;;;5024508;28;20196;-65
2022/03/08 06:33:28;;;;;;;17.50;7.67;;;-0.20;99.90;;;;;;5027935;28;20199;-65
2022/03/08 06:35:55;;;;;;;17.03;8.03;;;-0.10;99.90;;;;;;5018500;28;20231;-65
2022/03/08 06:38:22;;;;;;;18.00;8.50;;;0.00;99.90;;;;;;5023420;28;20231;-64
2022/03/08 06:40:49;;;;;;;14.77;7.33;;;0.10;99.90;;;;;;5024278;28;20195;-65
2022/03/08 06:43:16;;;;;;;15.80;7.87;;;0.10;99.90;;;;;;5021366;28;20195;-64
2022/03/08 06:45:43;;;;;;;16.10;7.30;;;0.20;99.90;;;;;;5019911;28;20261;-63
2022/03/08 06:48:11;;;;;;;14.50;8.60;;;0.20;99.90;;;;;;5013310;28;20461;-66
2022/03/08 06:50:38;;;;;;;13.93;7.27;;;0.30;99.90;;;;;;5021643;28;20302;-64
2022/03/08 06:53:04;;;;;;;20.07;8.20;;;0.40;99.90;;;;;;5023287;28;20273;-66
2022/03/08 06:55:31;;;;;;;16.30;7.30;;;0.60;99.90;;;;;;5019950;28;20288;-66
2022/03/08 06:57:58;;;;;;;12.27;6.90;;;0.60;99.90;;;;;;5022516;28;20230;-66
2022/03/08 07:00:24;;;;;;;16.53;6.33;;;0.70;99.90;;;;;;5022321;28;20199;-65
2022/03/08 07:02:51;;;;;;;12.13;6.47;;;0.80;99.90;;;;;;5019673;28;20207;-65
2022/03/08 07:05:18;;;;;;;10.47;6.23;;;0.90;99.90;;;;;;5015904;28;20315;-65
2022/03/08 07:07:44;;;;;;;12.53;6.63;;;1.10;99.90;;;;;;5021497;28;20210;-65
2022/03/08 07:10:11;;;;;;;11.97;5.80;;;1.10;99.90;;;;;;5021501;28;20214;-64
2022/03/08 07:12:38;;;;;;;12.23;5.90;;;1.20;99.90;;;;;;5022282;28;20206;-65
2022/03/08 07:15:06;;;;;;;12.73;5.83;;;1.40;99.90;;;;;;5022517;28;20607;-65
2022/03/08 07:17:32;;;;;;;13.10;5.87;;;1.60;99.90;;;;;;5022443;28;20283;-65
2022/03/08 07:19:59;;;;;;;12.07;6.57;;;1.70;99.90;;;;;;5021764;28;20227;-65
2022/03/08 07:22:26;;;;;;;11.67;5.83;;;1.80;99.90;;;;;;5021242;28;20196;-65
2022/03/08 07:24:54;;;;;;;10.07;5.87;;;2.00;99.90;;;;;;5020558;28;20191;-68
2022/03/08 07:27:20;;;;;;;14.43;5.93;;;2.10;99.90;;;;;;5022420;28;20211;-65
2022/03/08 07:29:47;;;;;;;14.03;6.03;;;2.20;99.90;;;;;;5020536;28;20218;-64
2022/03/08 07:32:15;;;;;;;16.13;6.30;;;2.30;99.90;;;;;;5013291;28;20214;-65
2022/03/08 07:34:42;;;;;;;14.17;6.23;;;2.30;99.90;;;;;;5017003;28;20215;-64
2022/03/08 07:37:09;;;;;;;9.47;6.07;;;2.40;99.90;;;;;;5018127;28;20231;-65
2022/03/08 07:39:36;;;;;;;12.30;7.10;;;2.60;99.90;;;;;;5017100;28;21041;-65
2022/03/08 07:42:03;;;;;;;10.47;6.60;;;2.70;99.90;;;;;;5018277;28;20274;-64
2022/03/08 07:44:29;;;;;;;14.00;6.73;;;2.80;99.90;;;;;;5017522;28;20576;-66
2022/03/08 07:46:57;;;;;;;13.33;6.40;;;3.00;99.90;;;;;;5015990;28;20221;-66
2022/03/08 07:49:25;;;;;;;14.33;6.50;;;3.20;99.90;;;;;;5020070;28;20584;-67
2022/03/08 07:51:52;;;;;;;9.00;5.57;;;3.30;99.90;;;;;;5021333;28;20201;-70
2022/03/08 07:54:19;;;;;;;16.37;6.07;;;3.40;99.90;;;;;;5022723;28;20214;-67
2022/03/08 07:56:46;;;;;;;12.87;6.00;;;3.60;99.90;;;;;;5018992;28;20240;-67
2022/03/08 07:59:13;;;;;;;11.50;6.30;;;3.60;99.90;;;;;;5021170;28;20223;-71
2022/03/08 08:01:40;;;;;;;10.07;6.57;;;3.60;99.90;;;;;;5022971;28;20239;-70
2022/03/08 08:04:07;;;;;;;12.57;5.47;;;3.70;99.90;;;;;;5023652;28;20613;-69
2022/03/08 08:06:34;;;;;;;11.10;6.23;;;3.80;99.90;;;;;;5024870;28;20234;-68
2022/03/08 08:09:00;;;;;;;12.83;6.50;;;3.80;99.90;;;;;;5025965;28;20226;-69
2022/03/08 08:11:27;;;;;;;12.87;6.10;;;3.80;99.90;;;;;;5024398;28;20221;-71
2022/03/08 08:13:54;;;;;;;10.17;5.80;;;4.00;99.90;;;;;;5023184;28;20210;-69
2022/03/08 08:16:23;;;;;;;10.23;5.90;;;4.00;99.90;;;;;;5021293;28;20211;-68
2022/03/08 08:18:50;;;;;;;8.97;5.83;;;4.10;99.90;;;;;;5021862;28;20314;-71
2022/03/08 08:21:17;;;;;;;9.53;6.30;;;4.10;99.90;;;;;;5008605;28;20199;-72
2022/03/08 08:23:43;;;;;;;22.20;8.33;;;4.30;99.90;;;;;;5022821;28;20195;-72
2022/03/08 08:26:10;;;;;;;10.90;7.00;;;4.40;99.90;;;;;;5004481;28;20591;-70
2022/03/08 08:28:37;;;;;;;9.50;5.27;;;4.60;99.90;;;;;;4996904;28;20192;-70
2022/03/08 08:31:03;;;;;;;12.60;6.10;;;4.70;99.90;;;;;;5004622;28;20300;-71
2022/03/08 08:33:31;;;;;;;9.93;6.10;;;4.70;99.90;;;;;;5005014;28;20876;-66
2022/03/08 08:35:58;;;;;;;9.33;6.03;;;4.80;99.90;;;;;;5017401;28;20224;-66
2022/03/08 08:38:25;;;;;;;11.93;6.23;;;4.80;99.90;;;;;;5018915;28;20219;-66
2022/03/08 08:40:51;;;;;;;10.87;6.33;;;4.80;99.90;;;;;;5016670;28;20208;-66
2022/03/08 08:43:18;;;;;;;10.50;6.60;;;4.80;99.90;;;;;;5016866;28;20205;-65
2022/03/08 08:45:51;;;;;;;15.27;6.40;;;4.70;99.90;;;;;;5016165;28;20248;-65
2022/03/08 08:48:20;;;;;;;12.10;6.47;;;4.80;99.90;;;;;;5016779;28;20269;-64
2022/03/08 08:50:47;;;;;;;9.90;6.17;;;4.80;99.90;;;;;;5019904;28;20227;-66
2022/03/08 08:53:17;;;;;;;12.10;6.17;;;4.80;99.90;;;;;;5017103;28;20453;-66
2022/03/08 08:55:44;;;;;;;11.23;6.60;;;5.00;99.90;;;;;;5018592;28;20771;-66
2022/03/08 08:58:11;;;;;;;11.20;6.47;;;5.00;99.90;;;;;;5008934;28;22089;-66
2022/03/08 09:00:38;;;;;;;11.47;6.93;;;5.00;99.90;;;;;;5016959;28;20232;-67
2022/03/08 09:03:09;;;;;;;11.43;6.53;;;5.20;99.90;;;;;;5018933;28;20205;-70
2022/03/08 09:05:36;;;;;;;10.87;6.30;;;5.30;99.90;;;;;;5017872;28;20218;-71
2022/03/08 09:08:04;;;;;;;13.07;6.70;;;5.40;99.90;;;;;;5015392;28;20196;-70
2022/03/08 09:10:30;;;;;;;19.07;6.90;;;5.50;99.90;;;;;;5017697;28;20205;-71
2022/03/08 09:12:57;;;;;;;12.50;6.73;;;5.50;99.90;;;;;;5016753;28;20667;-71
2022/03/08 09:15:24;;;;;;;14.87;7.00;;;5.50;99.90;;;;;;5014036;28;20577;-69
2022/03/08 09:17:50;;;;;;;14.33;6.70;;;5.60;99.90;;;;;;5015326;28;20201;-68
2022/03/08 09:20:17;;;;;;;16.13;7.00;;;5.60;99.90;;;;;;5015908;28;20235;-77
2022/03/08 09:22:48;;;;;;;10.83;6.50;;;5.80;99.90;;;;;;5014738;28;20220;-69
2022/03/08 09:25:15;;;;;;;12.23;6.90;;;5.80;99.90;;;;;;5021883;28;20548;-70
2022/03/08 09:27:41;;;;;;;13.00;6.23;;;5.80;99.90;;;;;;5022335;28;20199;-72
2022/03/08 09:30:09;;;;;;;13.47;6.40;;;5.80;99.90;;;;;;5021462;28;20208;-72
2022/03/08 09:32:35;;;;;;;19.23;7.43;;;5.90;99.90;;;;;;5039788;28;20213;-69
2022/03/08 09:35:03;;;;;;;16.37;7.17;;;6.00;99.90;;;;;;5023548;28;20229;-71
2022/03/08 09:37:30;;;;;;;12.70;6.70;;;6.10;99.90;;;;;;5022061;28;20200;-69
2022/03/08 09:39:56;;;;;;;13.37;6.70;;;6.10;99.90;;;;;;5019532;28;20223;-68
2022/03/08 09:42:23;;;;;;;11.97;6.83;;;6.20;99.90;;;;;;5015902;28;20201;-70
2022/03/08 09:44:50;;;;;;;9.40;6.13;;;6.40;99.90;;;;;;5019914;28;20207;-70
2022/03/08 09:47:18;;;;;;;10.80;6.80;;;6.60;99.90;;;;;;5015001;28;20301;-69
2022/03/08 09:49:45;;;;;;;10.77;6.40;;;6.60;99.90;;;;;;5015728;28;20210;-70
2022/03/08 09:52:12;;;;;;;12.73;7.07;;;6.60;99.90;;;;;;5018078;28;21011;-69
2022/03/08 09:54:43;;;;;;;10.40;6.63;;;6.70;99.90;;;;;;5017388;28;20210;-70
2022/03/08 09:57:12;;;;;;;14.73;6.90;;;6.80;99.90;;;;;;5013112;28;20239;-71
2022/03/08 09:59:39;;;;;;;11.63;6.83;;;6.90;99.90;;;;;;5014629;28;20310;-70
2022/03/08 10:02:06;;;;;;;9.70;6.73;;;7.00;99.90;;;;;;5014404;28;20206;-69
2022/03/08 10:04:33;;;;;;;14.00;6.20;;;7.10;99.90;;;;;;5016000;28;20275;-68
2022/03/08 10:07:20;;;;;;;14.40;6.50;;;7.20;99.90;;;;;;5011396;28;21763;-70
2022/03/08 10:09:59;;;;;;;17.87;7.30;;;7.20;99.90;;;;;;5018941;28;20246;-70
2022/03/08 10:12:27;;;;;;;12.13;6.63;;;7.10;99.90;;;;;;5014207;28;20207;-69
2022/03/08 10:14:54;;;;;;;14.50;7.03;;;7.20;99.90;;;;;;5016470;28;20704;-72
2022/03/08 10:17:38;;;;;;;14.80;6.97;;;7.30;99.90;;;;;;5012788;28;20209;-70
2022/03/08 10:20:10;;;;;;;10.93;6.80;;;7.40;99.90;;;;;;5017368;28;20223;-72
2022/03/08 10:22:40;;;;;;;12.87;6.90;;;7.50;99.90;;;;;;5012455;28;20211;-72
2022/03/08 10:25:24;;;;;;;11.23;6.60;;;7.60;99.90;;;;;;5012304;28;20223;-71
2022/03/08 10:27:54;;;;;;;12.97;6.50;;;7.50;99.90;;;;;;5013429;28;20223;-70
2022/03/08 10:30:23;;;;;;;12.27;6.83;;;7.50;99.90;;;;;;5014821;28;20209;-68
2022/03/08 10:33:03;;;;;;;10.67;6.53;;;7.50;99.90;;;;;;5012507;28;20897;-68
2022/03/08 10:35:31;;;;;;;11.43;6.90;;;7.70;99.90;;;;;;5015135;28;20238;-72
2022/03/08 10:38:04;;;;;;;11.87;6.40;;;7.70;99.90;;;;;;5014728;28;20203;-69
2022/03/08 10:40:34;;;;;;;10.53;6.33;;;7.80;99.90;;;;;;5015797;28;20220;-67
2022/03/08 10:43:03;;;;;;;9.30;6.23;;;7.70;99.90;;;;;;5011994;28;20203;-67
2022/03/08 10:45:32;;;;;;;11.43;6.33;;;7.70;99.90;;;;;;5009782;28;20211;-67
2022/03/08 10:48:00;;;;;;;13.10;6.93;;;7.70;99.90;;;;;;5012336;28;20204;-68
2022/03/08 10:50:29;;;;;;;13.10;6.83;;;8.00;99.90;;;;;;5014754;28;20203;-68
2022/03/08 10:52:58;;;;;;;12.13;6.60;;;8.20;99.90;;;;;;5013461;28;20733;-68
2022/03/08 10:55:35;;;;;;;11.17;6.37;;;8.20;99.90;;;;;;5015944;28;20978;-68
2022/03/08 10:58:04;;;;;;;9.73;5.83;;;8.30;99.90;;;;;;5012901;28;20641;-69
2022/03/08 11:00:59;;;;;;;10.77;6.53;;;8.40;99.90;;;;;;5012651;28;20261;-68
2022/03/08 11:03:27;;;;;;;9.73;5.73;;;8.50;99.90;;;;;;5013170;28;20206;-67
2022/03/08 11:05:56;;;;;;;8.67;5.70;;;8.60;99.90;;;;;;5014034;28;20357;-67
2022/03/08 11:08:28;;;;;;;8.63;5.43;;;8.80;99.90;;;;;;5014879;28;20208;-67
2022/03/08 11:10:55;;;;;;;7.40;5.33;;;8.80;99.90;;;;;;5015889;28;20665;-68
2022/03/08 11:13:23;;;;;;;13.63;5.70;;;8.90;99.90;;;;;;5015606;28;20357;-68
2022/03/08 11:15:50;;;;;;;9.33;5.33;;;9.00;99.90;;;;;;5011392;28;20222;-69
2022/03/08 11:18:17;;;;;;;9.63;5.43;;;9.10;99.90;;;;;;5014055;28;20210;-69
2022/03/08 11:20:46;;;;;;;9.97;4.80;;;9.20;99.90;;;;;;5014001;28;20399;-67
2022/03/08 11:23:13;;;;;;;8.57;4.60;;;9.20;99.90;;;;;;5016675;28;20216;-69
2022/03/08 11:25:45;;;;;;;5.97;4.23;;;9.20;99.90;;;;;;5014144;28;20239;-72
2022/03/08 11:28:18;;;;;;;8.87;4.43;;;9.10;99.90;;;;;;5016297;28;20252;-68
2022/03/08 11:30:51;;;;;;;8.27;4.63;;;9.20;99.90;;;;;;5015677;28;20214;-71
2022/03/08 11:33:29;;;;;;;10.40;5.00;;;9.30;99.90;;;;;;5009292;28;20580;-69
2022/03/08 11:36:26;;;;;;;9.53;4.60;;;9.40;99.90;;;;;;5014418;28;20227;-74
2022/03/08 11:39:15;;;;;;;6.87;4.53;;;9.50;99.90;;;;;;5014725;28;20206;-68
2022/03/08 11:41:44;;;;;;;10.37;4.40;;;9.50;99.90;;;;;;5011617;28;20219;-69
2022/03/08 11:44:31;;;;;;;6.93;3.90;;;9.50;99.90;;;;;;5014558;28;20200;-68
2022/03/08 11:47:00;;;;;;;7.33;4.30;;;9.60;99.90;;;;;;5012240;28;20360;-69
2022/03/08 11:49:56;;;;;;;10.17;4.23;;;9.70;99.90;;;;;;5016570;28;20215;-69
2022/03/08 11:52:33;;;;;;;6.57;4.53;;;9.80;99.90;;;;;;5014839;28;20205;-69
2022/03/08 11:55:06;;;;;;;8.10;4.50;;;9.90;99.90;;;;;;5009979;28;20783;-68
2022/03/08 11:58:20;;;;;;;8.23;4.80;;;10.00;99.90;;;;;;5012416;28;20296;-69
2022/03/08 12:00:50;;;;;;;6.40;4.00;;;10.00;99.90;;;;;;5010102;28;20226;-70
2022/03/08 12:03:23;;;;;;;6.97;4.37;;;10.00;99.90;;;;;;5013748;28;20470;-69
2022/03/08 12:06:01;;;;;;;6.43;4.33;;;10.10;99.90;;;;;;5016454;28;20291;-70
2022/03/08 12:08:28;;;;;;;9.67;4.13;;;10.10;99.90;;;;;;5015381;28;20548;-69
2022/03/08 12:11:00;;;;;;;7.83;4.43;;;10.10;99.80;;;;;;5015474;28;20211;-71
2022/03/08 12:13:40;;;;;;;6.93;3.57;;;10.00;99.90;;;;;;5015593;28;20297;-68
2022/03/08 12:16:09;;;;;;;8.63;4.40;;;10.10;99.50;;;;;;5016713;28;20225;-69
2022/03/08 12:18:45;;;;;;;8.40;4.37;;;10.20;99.70;;;;;;5014135;28;20297;-70
2022/03/08 12:21:18;;;;;;;8.77;4.20;;;10.30;99.50;;;;;;5015808;28;20229;-69
2022/03/08 12:23:57;;;;;;;9.50;4.33;;;10.30;99.40;;;;;;5013238;28;20636;-68
2022/03/08 12:26:41;;;;;;;6.33;4.27;;;10.20;99.40;;;;;;5031525;28;20221;-68
2022/03/08 12:30:02;;;;;;;8.63;4.73;;;10.20;99.30;;;;;;5014866;28;20339;-69
2022/03/08 12:32:35;;;;;;;7.03;4.30;;;10.40;98.80;;;;;;5014701;28;20895;-68
2022/03/08 12:35:09;;;;;;;6.83;4.43;;;10.40;98.80;;;;;;5017276;28;20429;-70
2022/03/08 12:37:46;;;;;;;8.43;4.47;;;10.50;99.20;;;;;;5031843;28;20476;-69
2022/03/08 12:40:12;;;;;;;13.77;4.83;;;10.60;98.70;;;;;;5019265;28;20223;-69
2022/03/08 12:42:42;;;;;;;9.43;4.23;;;10.60;99.00;;;;;;5020866;28;20283;-68
2022/03/08 12:45:18;;;;;;;8.37;4.70;;;10.60;98.50;;;;;;5018736;28;20693;-69
2022/03/08 12:48:06;;;;;;;9.77;5.00;;;10.50;99.00;;;;;;5017825;28;20222;-68
2022/03/08 12:50:38;;;;;;;8.80;4.10;;;10.70;98.60;;;;;;5018286;28;20211;-69
2022/03/08 12:53:09;;;;;;;7.00;4.23;;;10.70;98.60;;;;;;5021584;28;20213;-69
2022/03/08 12:55:40;;;;;;;8.93;4.50;;;10.80;98.30;;;;;;5018963;28;20261;-69
2022/03/08 12:58:14;;;;;;;6.10;4.00;;;10.80;97.90;;;;;;5019606;28;20208;-69